X  Κλείσε Στοιχεία αεροπορικών μετεωρολογικών δεδομένων METAR        EBOS Ostend-Bruges International Airport
θερμοκρασία
15°C θερμοκρασία
8°C Σημείο δρόσου
63% Υγρασία



Ανεμος
20 KM/H
13 MPH
6 M/S
11 KTS



220°
ND
Τρέχουσες συνθήκες

Partly Cloudy Μερικώς συννεφιασμένος
πίεση 1009 (hPa) - 29.79 (inHg)
Ορατότητα 6 (μίλι) - 10 (km)
Aεροδρόμιο
Κωδικός αεροδρομίου EBOS

Τοποθεσία: Ostend-Bruges International Airport
Απόσταση: 60 (km)

Metar:
METAR EBOS 301150Z 22011KT 9999 SCT034 15/08 Q1009 NOSIG

ώρα: 30-09-2022 13:50 CEST